createdAt,value
2017-11-22T00:02:10.576Z,21.80
2017-11-22T00:04:39.649Z,19.80
2017-11-22T00:09:42.653Z,27.00
2017-11-22T00:12:13.528Z,15.87
2017-11-22T00:17:43.693Z,21.03
2017-11-22T00:20:13.725Z,19.07
2017-11-22T00:22:58.825Z,21.80
2017-11-22T00:28:28.281Z,14.60
2017-11-22T00:33:49.658Z,18.43
2017-11-22T00:36:19.616Z,18.40
2017-11-22T00:41:35.801Z,18.37
2017-11-22T00:44:10.571Z,13.43
2017-11-22T00:49:39.453Z,14.83
2017-11-22T00:52:08.633Z,17.07
2017-11-22T00:57:27.183Z,17.00
2017-11-22T00:59:56.648Z,20.73
2017-11-22T01:02:26.416Z,15.07
2017-11-22T01:07:51.689Z,13.60
2017-11-22T01:10:29.159Z,18.27
2017-11-22T01:13:08.309Z,13.13
2017-11-22T01:23:38.009Z,19.20
2017-11-22T01:26:16.225Z,19.20
2017-11-22T01:28:52.490Z,17.37
2017-11-22T01:31:32.713Z,18.70
2017-11-22T01:34:02.822Z,25.13
2017-11-22T01:42:18.289Z,21.70
2017-11-22T01:44:47.328Z,23.10
2017-11-22T01:47:25.131Z,21.83
2017-11-22T01:52:27.685Z,23.83
2017-11-22T02:08:36.691Z,21.73
2017-11-22T02:13:54.486Z,17.93
2017-11-22T02:16:25.499Z,21.00
2017-11-22T02:18:54.612Z,20.00
2017-11-22T02:21:38.145Z,20.30
2017-11-22T02:24:08.824Z,20.40
2017-11-22T02:26:40.038Z,22.23
2017-11-22T02:35:07.306Z,20.90
2017-11-22T02:38:08.853Z,20.23
2017-11-22T02:40:51.401Z,18.77
2017-11-22T02:43:20.890Z,18.87
2017-11-22T02:46:04.012Z,26.93
2017-11-22T02:48:51.537Z,20.57
2017-11-22T02:51:25.812Z,18.60
2017-11-22T02:56:56.733Z,21.03
2017-11-22T03:02:05.545Z,22.23
2017-11-22T03:09:58.264Z,26.17
2017-11-22T03:12:36.112Z,25.50
2017-11-22T03:23:17.978Z,37.93
2017-11-22T03:25:57.150Z,32.37
2017-11-22T03:31:07.604Z,34.03
2017-11-22T03:33:50.356Z,37.90
2017-11-22T03:36:19.773Z,41.47
2017-11-22T03:38:49.053Z,46.40
2017-11-22T03:41:26.605Z,45.90
2017-11-22T03:44:05.072Z,54.90
2017-11-22T03:49:07.639Z,59.50
2017-11-22T03:54:41.003Z,61.30
2017-11-22T03:57:11.357Z,58.20
2017-11-22T04:02:25.277Z,58.37
2017-11-22T04:07:30.907Z,66.10
2017-11-22T04:10:00.993Z,60.83
2017-11-22T04:12:33.877Z,75.17
2017-11-22T04:15:14.525Z,78.53
2017-11-22T04:17:56.693Z,71.50
2017-11-22T04:20:42.178Z,65.97
2017-11-22T04:23:12.137Z,57.50
2017-11-22T04:25:46.136Z,67.43
2017-11-22T04:28:17.282Z,60.43
2017-11-22T04:30:47.253Z,61.77
2017-11-22T04:33:16.274Z,62.97
2017-11-22T04:35:45.353Z,88.13
2017-11-22T04:38:15.427Z,69.70
2017-11-22T04:40:45.167Z,61.73
2017-11-22T04:43:21.349Z,65.33
2017-11-22T04:45:50.414Z,50.27
2017-11-22T04:48:19.517Z,59.83
2017-11-22T04:50:48.564Z,60.30
2017-11-22T04:53:17.600Z,54.03
2017-11-22T04:55:47.190Z,50.33
2017-11-22T04:58:16.313Z,53.13
2017-11-22T05:00:47.541Z,56.97
2017-11-22T05:03:24.495Z,60.60
2017-11-22T05:05:53.585Z,57.23
2017-11-22T05:08:30.057Z,57.13
2017-11-22T05:11:00.017Z,62.27
2017-11-22T05:13:38.920Z,113.20
2017-11-22T05:16:08.353Z,165.73
2017-11-22T05:18:38.200Z,96.40
2017-11-22T05:21:09.279Z,87.43
2017-11-22T05:26:13.840Z,96.70
2017-11-22T05:28:51.364Z,72.53
2017-11-22T05:34:15.586Z,82.30
2017-11-22T05:36:51.988Z,83.33
2017-11-22T05:39:21.025Z,82.57
2017-11-22T05:41:50.098Z,95.70
2017-11-22T05:44:19.140Z,69.50
2017-11-22T05:46:55.951Z,74.07
2017-11-22T05:49:25.244Z,134.47
2017-11-22T05:51:54.275Z,111.43
2017-11-22T05:54:23.336Z,67.63
2017-11-22T05:56:52.420Z,72.17
2017-11-22T05:59:21.825Z,71.67
2017-11-22T06:01:51.201Z,77.83
2017-11-22T06:04:20.274Z,82.50
2017-11-22T06:06:56.954Z,84.60
2017-11-22T06:09:26.380Z,93.30
2017-11-22T06:11:55.449Z,79.50
2017-11-22T06:14:24.547Z,76.90
2017-11-22T06:16:53.684Z,60.13
2017-11-22T06:19:22.732Z,61.60
2017-11-22T06:21:53.278Z,64.10
2017-11-22T06:24:27.083Z,61.00
2017-11-22T06:26:56.189Z,81.10
2017-11-22T06:29:37.104Z,58.63
2017-11-22T06:32:06.138Z,69.00
2017-11-22T06:34:35.173Z,95.30
2017-11-22T06:37:05.137Z,64.47
2017-11-22T06:39:34.250Z,70.07
2017-11-22T06:42:03.836Z,65.63
2017-11-22T06:44:32.935Z,76.27
2017-11-22T06:47:02.006Z,82.97
2017-11-22T06:49:35.035Z,66.30
2017-11-22T06:52:04.468Z,64.07
2017-11-22T06:54:37.333Z,74.13
2017-11-22T06:57:07.373Z,66.07
2017-11-22T06:59:36.611Z,101.97
2017-11-22T07:02:09.225Z,90.57
2017-11-22T07:04:44.648Z,66.13
2017-11-22T07:07:13.694Z,63.80
2017-11-22T07:09:50.390Z,60.87
2017-11-22T07:12:21.158Z,86.47
2017-11-22T07:14:52.094Z,69.83
2017-11-22T07:17:26.740Z,64.60
2017-11-22T07:19:55.883Z,73.67
2017-11-22T07:22:25.064Z,56.43
2017-11-22T07:24:54.302Z,62.53
2017-11-22T07:27:25.217Z,101.47
2017-11-22T07:29:55.778Z,55.50
2017-11-22T07:32:29.146Z,73.50
2017-11-22T07:35:04.822Z,73.70
2017-11-22T07:37:49.586Z,51.93
2017-11-22T07:40:37.001Z,51.83
2017-11-22T07:43:09.092Z,62.20
2017-11-22T07:45:39.028Z,70.33
2017-11-22T07:48:14.041Z,70.33
2017-11-22T07:50:46.152Z,64.17
2017-11-22T07:53:15.452Z,53.03
2017-11-22T07:55:51.836Z,74.97
2017-11-22T07:58:22.076Z,128.90
2017-11-22T08:01:02.807Z,101.30
2017-11-22T08:03:35.632Z,51.90
2017-11-22T08:06:05.065Z,67.63
2017-11-22T08:08:34.390Z,75.10
2017-11-22T08:11:04.405Z,48.97
2017-11-22T08:13:37.557Z,59.23
2017-11-22T08:16:07.059Z,48.70
2017-11-22T08:18:39.468Z,41.20
2017-11-22T08:21:09.025Z,39.27
2017-11-22T08:23:38.593Z,31.43
2017-11-22T08:26:08.152Z,35.37
2017-11-22T08:28:44.223Z,36.13
2017-11-22T08:31:13.740Z,31.23
2017-11-22T08:33:42.791Z,39.50
2017-11-22T08:36:19.074Z,29.57
2017-11-22T08:38:54.197Z,31.23
2017-11-22T08:41:25.878Z,46.10
2017-11-22T08:43:55.508Z,34.87
2017-11-22T08:46:24.845Z,40.33
2017-11-22T08:48:53.902Z,39.53
2017-11-22T08:51:30.141Z,49.37
2017-11-22T08:54:04.950Z,34.47
2017-11-22T08:56:45.890Z,38.33
2017-11-22T08:59:14.979Z,28.17
2017-11-22T09:01:44.282Z,40.13
2017-11-22T09:04:13.607Z,36.53
2017-11-22T09:06:48.551Z,27.97
2017-11-22T09:09:18.689Z,32.00
2017-11-22T09:11:47.764Z,27.83
2017-11-22T09:14:16.854Z,28.93
2017-11-22T09:16:46.581Z,23.87
2017-11-22T09:19:16.476Z,21.37
2017-11-22T09:21:45.533Z,21.03
2017-11-22T09:24:14.619Z,17.70
2017-11-22T09:26:44.520Z,17.60
2017-11-22T09:29:13.841Z,21.07
2017-11-22T09:31:55.745Z,21.07
2017-11-22T09:34:30.531Z,18.90
2017-11-22T09:36:59.865Z,34.37
2017-11-22T09:39:28.980Z,19.53
2017-11-22T09:41:58.016Z,19.93
2017-11-22T09:44:27.734Z,15.10
2017-11-22T09:46:56.801Z,16.43
2017-11-22T09:49:25.852Z,21.43
2017-11-22T09:51:55.005Z,18.80
2017-11-22T09:54:24.194Z,20.03
2017-11-22T09:57:09.258Z,18.40
2017-11-22T09:59:38.320Z,21.60
2017-11-22T10:02:10.916Z,16.33
2017-11-22T10:04:39.999Z,21.93
2017-11-22T10:07:09.053Z,24.83
2017-11-22T10:09:38.141Z,15.70
2017-11-22T10:12:07.224Z,16.30
2017-11-22T10:14:42.496Z,16.17
2017-11-22T10:17:15.272Z,15.17
2017-11-22T10:19:59.382Z,14.83
2017-11-22T10:22:28.466Z,12.67
2017-11-22T10:25:03.655Z,18.50
2017-11-22T10:27:34.319Z,14.37
2017-11-22T10:30:13.661Z,22.93
2017-11-22T10:32:48.414Z,14.03
2017-11-22T10:35:23.558Z,13.33
2017-11-22T10:37:52.632Z,11.50
2017-11-22T10:40:21.721Z,14.83
2017-11-22T10:42:50.792Z,14.53
2017-11-22T10:45:19.845Z,18.97
2017-11-22T10:47:54.292Z,14.43
2017-11-22T10:50:23.424Z,29.37
2017-11-22T10:52:52.698Z,14.93
2017-11-22T10:55:21.746Z,10.73
2017-11-22T10:57:50.938Z,7.80
2017-11-22T11:00:20.373Z,10.20
2017-11-22T11:02:49.409Z,10.03
2017-11-22T11:05:18.433Z,11.30
2017-11-22T11:08:07.843Z,18.27
2017-11-22T11:10:36.914Z,13.73
2017-11-22T11:13:05.972Z,9.23
2017-11-22T11:15:42.771Z,21.37
2017-11-22T11:18:11.846Z,17.90
2017-11-22T11:20:40.951Z,9.30
2017-11-22T11:23:10.973Z,11.93
2017-11-22T11:25:40.040Z,9.40
2017-11-22T11:28:09.116Z,35.43
2017-11-22T11:30:38.173Z,21.73
2017-11-22T11:33:20.062Z,6.47
2017-11-22T11:35:54.885Z,7.87
2017-11-22T11:38:24.026Z,5.90
2017-11-22T11:40:54.673Z,10.30
2017-11-22T11:43:36.135Z,15.40
2017-11-22T11:46:06.358Z,8.80
2017-11-22T11:48:35.439Z,4.57
2017-11-22T11:51:04.504Z,6.90
2017-11-22T11:53:33.590Z,11.03
2017-11-22T11:56:02.630Z,5.50
2017-11-22T11:58:31.694Z,7.57
2017-11-22T12:01:13.592Z,18.97
2017-11-22T12:03:42.989Z,6.90
2017-11-22T12:06:12.059Z,6.90
2017-11-22T12:08:41.134Z,10.60
2017-11-22T12:11:16.209Z,6.30
2017-11-22T12:13:51.494Z,6.97
2017-11-22T12:16:20.550Z,7.07
2017-11-22T12:18:49.581Z,16.03
2017-11-22T12:21:33.514Z,10.30
2017-11-22T12:24:02.578Z,8.77
2017-11-22T12:26:32.082Z,7.93
2017-11-22T12:29:01.172Z,11.43
2017-11-22T12:31:30.231Z,9.40
2017-11-22T12:33:59.301Z,10.00
2017-11-22T12:36:28.733Z,10.87
2017-11-22T12:38:57.998Z,10.03
2017-11-22T12:41:27.093Z,4.50
2017-11-22T12:44:18.214Z,5.30
2017-11-22T12:46:47.324Z,7.03
2017-11-22T12:49:16.380Z,9.27
2017-11-22T12:51:45.455Z,9.87
2017-11-22T12:54:14.834Z,3.93
2017-11-22T12:56:43.963Z,6.37
2017-11-22T12:59:13.038Z,5.30
2017-11-22T13:01:43.649Z,6.90
2017-11-22T13:04:12.964Z,3.90
2017-11-22T13:06:42.053Z,3.70
2017-11-22T13:09:11.329Z,5.37
2017-11-22T13:11:41.753Z,8.83
2017-11-22T13:14:10.807Z,3.90
2017-11-22T13:16:46.207Z,4.17
2017-11-22T13:19:21.681Z,5.00
2017-11-22T13:21:50.768Z,3.73
2017-11-22T13:24:19.852Z,7.10
2017-11-22T13:26:48.921Z,8.00
2017-11-22T13:29:17.937Z,5.83
2017-11-22T13:31:47.039Z,6.37
2017-11-22T13:34:16.340Z,10.67
2017-11-22T13:36:55.445Z,6.67
2017-11-22T13:39:24.573Z,6.80
2017-11-22T13:41:59.989Z,5.60
2017-11-22T13:44:29.304Z,6.07
2017-11-22T13:46:58.634Z,7.97
2017-11-22T13:49:27.719Z,5.80
2017-11-22T13:51:56.905Z,7.27
2017-11-22T13:54:27.225Z,9.60
2017-11-22T13:56:56.409Z,11.33
2017-11-22T13:59:25.564Z,8.63
2017-11-22T14:01:54.707Z,6.67
2017-11-22T14:04:23.839Z,5.30
2017-11-22T14:06:53.097Z,13.77
2017-11-22T14:09:22.135Z,12.07
2017-11-22T14:12:00.032Z,10.83
2017-11-22T14:14:29.187Z,9.90
2017-11-22T14:16:58.524Z,8.13
2017-11-22T14:19:27.607Z,9.60
2017-11-22T14:21:56.700Z,8.33
2017-11-22T14:24:25.919Z,19.67
2017-11-22T14:26:56.105Z,6.27
2017-11-22T14:29:25.181Z,11.43
2017-11-22T14:31:56.495Z,13.80
2017-11-22T14:34:32.693Z,12.93
2017-11-22T14:37:01.795Z,16.70
2017-11-22T14:39:32.014Z,10.07
2017-11-22T14:42:01.152Z,12.07
2017-11-22T14:44:30.383Z,12.13
2017-11-22T14:47:00.116Z,9.67
2017-11-22T14:49:29.212Z,10.47
2017-11-22T14:51:58.318Z,6.70
2017-11-22T14:54:27.429Z,10.80
2017-11-22T14:56:56.572Z,8.80
2017-11-22T14:59:31.698Z,12.43
2017-11-22T15:02:00.747Z,9.77
2017-11-22T15:04:30.008Z,12.73
2017-11-22T15:06:59.097Z,21.40
2017-11-22T15:09:28.268Z,13.27
2017-11-22T15:11:57.676Z,9.87
2017-11-22T15:14:26.980Z,9.37
2017-11-22T15:17:08.988Z,10.33
2017-11-22T15:19:38.909Z,17.73
2017-11-22T15:22:09.432Z,12.83
2017-11-22T15:24:38.530Z,11.47
2017-11-22T15:27:07.657Z,12.33
2017-11-22T15:29:36.740Z,10.90
2017-11-22T15:32:19.479Z,11.17
2017-11-22T16:03:04.949Z,16.10
2017-11-22T16:05:34.049Z,14.73
2017-11-22T16:08:07.802Z,24.57
2017-11-22T16:10:36.830Z,12.63
2017-11-22T16:13:15.226Z,19.30
2017-11-22T16:15:44.307Z,17.73
2017-11-22T16:18:27.362Z,18.63
2017-11-22T16:20:56.429Z,22.33
2017-11-22T16:23:25.772Z,16.20
2017-11-22T16:25:55.089Z,20.40
2017-11-22T16:28:24.196Z,21.37
2017-11-22T16:30:53.288Z,23.37
2017-11-22T16:33:23.085Z,18.63
2017-11-22T16:35:52.356Z,19.10
2017-11-22T16:38:21.467Z,16.87
2017-11-22T16:40:50.681Z,18.30
2017-11-22T16:43:19.794Z,27.23
2017-11-22T16:45:56.246Z,25.63
2017-11-22T16:48:38.290Z,27.50
2017-11-22T16:51:07.386Z,23.93
2017-11-22T16:53:36.457Z,16.60
2017-11-22T16:56:05.938Z,19.73
2017-11-22T16:58:35.049Z,18.97
2017-11-22T17:01:19.212Z,19.60
2017-11-22T17:03:48.300Z,32.83
2017-11-22T17:06:17.340Z,37.13
2017-11-22T17:08:47.303Z,39.17
2017-11-22T17:11:16.414Z,43.23
2017-11-22T17:13:49.594Z,43.83
2017-11-22T17:16:18.728Z,27.17
2017-11-22T17:18:47.863Z,63.33
2017-11-22T17:21:16.955Z,30.83
2017-11-22T17:23:46.062Z,47.43
2017-11-22T17:26:15.138Z,59.70
2017-11-22T17:28:44.217Z,61.27
2017-11-22T17:31:13.636Z,26.10
2017-11-22T17:33:42.683Z,26.97
2017-11-22T17:36:11.743Z,43.97
2017-11-22T17:38:41.040Z,23.73
2017-11-22T17:41:10.126Z,39.73
2017-11-22T17:43:39.208Z,21.70
2017-11-22T17:46:08.295Z,38.03
2017-11-22T17:48:49.796Z,29.93
2017-11-22T17:51:19.241Z,31.30
2017-11-22T17:53:55.802Z,24.73
2017-11-22T17:56:24.872Z,32.47
2017-11-22T17:58:53.989Z,23.87
2017-11-22T18:01:23.053Z,28.43
2017-11-22T18:03:52.375Z,31.47
2017-11-22T18:06:21.818Z,26.97
2017-11-22T18:08:51.818Z,39.00
2017-11-22T18:11:20.926Z,27.57
2017-11-22T18:13:49.980Z,24.37
2017-11-22T18:16:19.072Z,30.53
2017-11-22T18:18:48.190Z,28.90
2017-11-22T18:21:17.285Z,35.93
2017-11-22T18:23:46.888Z,31.83
2017-11-22T18:26:17.080Z,26.63
2017-11-22T18:28:46.826Z,33.20
2017-11-22T18:31:15.888Z,30.83
2017-11-22T18:33:50.341Z,35.50
2017-11-22T18:36:20.932Z,38.33
2017-11-22T18:38:51.936Z,33.93
2017-11-22T18:41:23.162Z,35.03
2017-11-22T18:43:52.250Z,31.37
2017-11-22T18:46:21.368Z,38.20
2017-11-22T18:48:50.658Z,41.20
2017-11-22T18:51:20.196Z,42.63
2017-11-22T18:53:55.507Z,32.47
2017-11-22T18:56:26.561Z,41.00
2017-11-22T18:58:55.621Z,31.00
2017-11-22T19:01:32.587Z,36.80
2017-11-22T19:04:02.872Z,42.90
2017-11-22T19:06:39.781Z,42.93
2017-11-22T19:09:08.851Z,35.30
2017-11-22T19:11:38.768Z,39.50
2017-11-22T19:14:08.024Z,37.03
2017-11-22T19:16:41.960Z,30.97
2017-11-22T19:19:20.044Z,40.83
2017-11-22T19:21:53.885Z,37.83
2017-11-22T19:24:22.984Z,41.83
2017-11-22T19:27:02.652Z,38.20
2017-11-22T19:29:31.721Z,39.90
2017-11-22T19:32:01.119Z,36.03
2017-11-22T19:34:30.447Z,44.07
2017-11-22T19:37:03.436Z,32.83
2017-11-22T19:42:09.526Z,42.00
2017-11-22T19:44:39.000Z,38.73
2017-11-22T19:47:08.438Z,40.67
2017-11-22T19:49:37.465Z,43.97
2017-11-22T19:52:06.888Z,41.90
2017-11-22T19:54:45.304Z,34.60
2017-11-22T19:57:16.318Z,42.63
2017-11-22T19:59:46.273Z,38.73
2017-11-22T20:02:15.423Z,36.10
2017-11-22T20:04:44.989Z,38.23
2017-11-22T20:07:20.034Z,32.83
2017-11-22T20:09:51.065Z,33.70
2017-11-22T20:12:24.272Z,34.70
2017-11-22T20:14:54.837Z,35.60
2017-11-22T20:17:24.021Z,38.30
2017-11-22T20:20:02.297Z,35.13
2017-11-22T20:22:31.588Z,42.17
2017-11-22T20:25:01.202Z,39.20
2017-11-22T20:27:30.446Z,47.00
2017-11-22T20:29:59.540Z,38.87
2017-11-22T20:32:32.043Z,44.90
2017-11-22T20:35:08.145Z,40.00
2017-11-22T20:37:39.302Z,36.60
2017-11-22T20:42:43.870Z,40.33
2017-11-22T20:45:13.430Z,47.03
2017-11-22T20:47:42.536Z,39.23
2017-11-22T20:50:11.936Z,40.67
2017-11-22T20:52:40.981Z,37.93
2017-11-22T20:57:43.844Z,38.53
2017-11-22T21:00:13.537Z,44.10
2017-11-22T21:02:42.825Z,41.00
2017-11-22T21:05:13.054Z,36.60
2017-11-22T21:07:42.778Z,31.33
2017-11-22T21:10:27.374Z,34.37
2017-11-22T21:13:10.734Z,33.50
2017-11-22T21:15:41.806Z,32.17
2017-11-22T21:18:19.216Z,38.70
2017-11-22T21:20:48.640Z,34.77
2017-11-22T21:23:32.020Z,33.50
2017-11-22T21:26:01.237Z,33.43
2017-11-22T21:28:30.812Z,37.87
2017-11-22T21:31:15.287Z,32.97
2017-11-22T21:33:49.393Z,37.70
2017-11-22T21:36:19.505Z,36.37
2017-11-22T21:38:48.554Z,30.93
2017-11-22T21:41:19.778Z,28.00
2017-11-22T21:43:48.834Z,36.30
2017-11-22T21:48:54.572Z,29.10
2017-11-22T21:51:38.813Z,27.97
2017-11-22T21:54:11.992Z,30.73
2017-11-22T21:56:43.209Z,25.10
2017-11-22T21:59:21.185Z,24.80
2017-11-22T22:01:52.198Z,32.00
2017-11-22T22:04:21.467Z,23.50
2017-11-22T22:06:50.813Z,30.93
2017-11-22T22:09:19.909Z,21.80
2017-11-22T22:11:48.977Z,23.33
2017-11-22T22:14:18.172Z,20.30
2017-11-22T22:16:48.176Z,24.57
2017-11-22T22:19:19.063Z,23.13
2017-11-22T22:22:00.654Z,19.73
2017-11-22T22:24:29.864Z,18.97
2017-11-22T22:26:58.918Z,18.17
2017-11-22T22:29:29.776Z,18.33
2017-11-22T22:32:00.372Z,16.57
2017-11-22T22:34:31.240Z,19.03
2017-11-22T22:37:01.823Z,16.83
2017-11-22T22:39:31.836Z,26.90
2017-11-22T22:42:01.338Z,19.83
2017-11-22T22:44:30.439Z,18.67
2017-11-22T22:47:00.048Z,15.17
2017-11-22T22:49:32.976Z,17.83
2017-11-22T22:52:06.074Z,16.50
2017-11-22T22:54:37.392Z,13.77
2017-11-22T22:57:15.977Z,14.40
2017-11-22T23:02:18.412Z,14.50
2017-11-22T23:07:41.435Z,17.37
2017-11-22T23:10:10.812Z,16.80
2017-11-22T23:12:41.683Z,16.53
2017-11-22T23:15:10.706Z,19.27
2017-11-22T23:17:39.732Z,24.63
2017-11-22T23:20:10.675Z,13.50
2017-11-22T23:22:42.883Z,18.33
2017-11-22T23:25:24.569Z,14.67
2017-11-22T23:28:02.239Z,20.67
2017-11-22T23:30:33.055Z,13.27
2017-11-22T23:33:06.216Z,13.77
2017-11-22T23:35:36.604Z,10.63
2017-11-22T23:38:06.941Z,10.50
2017-11-22T23:43:24.583Z,12.80
2017-11-22T23:45:54.602Z,11.77
2017-11-22T23:48:23.792Z,11.50
2017-11-22T23:51:01.000Z,11.50
2017-11-22T23:53:30.253Z,12.13
2017-11-22T23:56:03.857Z,11.03
